createdAt,value
2023-02-16T00:00:34.147Z,8.93
2023-02-16T00:03:01.441Z,9.47
2023-02-16T00:05:33.141Z,9.30
2023-02-16T00:08:01.800Z,9.70
2023-02-16T00:10:33.902Z,9.57
2023-02-16T00:13:20.540Z,9.40
2023-02-16T00:15:48.160Z,9.33
2023-02-16T00:18:18.621Z,9.73
2023-02-16T00:20:47.964Z,9.83
2023-02-16T00:23:15.338Z,9.90
2023-02-16T00:25:42.645Z,10.60
2023-02-16T00:28:17.916Z,9.50
2023-02-16T00:30:45.463Z,10.50
2023-02-16T00:33:17.712Z,9.73
2023-02-16T00:35:45.101Z,10.33
2023-02-16T00:38:14.140Z,10.53
2023-02-16T00:40:42.914Z,10.50
2023-02-16T00:43:28.168Z,10.53
2023-02-16T00:45:56.631Z,10.97
2023-02-16T00:48:24.541Z,11.80
2023-02-16T00:50:51.657Z,11.30
2023-02-16T00:53:19.044Z,11.47
2023-02-16T00:55:46.439Z,11.43
2023-02-16T00:58:23.175Z,11.63
2023-02-16T01:00:56.376Z,11.73
2023-02-16T01:03:27.032Z,12.00
2023-02-16T01:06:14.271Z,11.97
2023-02-16T01:09:01.468Z,11.73
2023-02-16T01:11:29.146Z,11.90
2023-02-16T01:13:57.219Z,11.97
2023-02-16T01:16:37.512Z,11.93
2023-02-16T01:19:04.954Z,12.90
2023-02-16T01:21:32.189Z,12.40
2023-02-16T01:23:59.350Z,12.33
2023-02-16T01:26:26.660Z,12.40
2023-02-16T01:28:53.932Z,12.13
2023-02-16T01:31:21.323Z,11.90
2023-02-16T01:33:48.523Z,12.43
2023-02-16T01:36:39.089Z,11.77
2023-02-16T01:39:07.295Z,11.87
2023-02-16T01:41:49.172Z,12.03
2023-02-16T01:44:22.764Z,13.13
2023-02-16T01:46:52.337Z,11.90
2023-02-16T01:49:22.009Z,12.57
2023-02-16T01:51:52.042Z,12.67
2023-02-16T01:54:32.984Z,12.17
2023-02-16T01:57:11.983Z,13.27
2023-02-16T01:59:48.146Z,12.80
2023-02-16T02:02:19.879Z,13.87
2023-02-16T02:05:12.190Z,12.73
2023-02-16T02:08:00.488Z,12.83
2023-02-16T02:11:00.584Z,12.90
2023-02-16T02:13:28.732Z,12.50
2023-02-16T02:15:58.683Z,13.50
2023-02-16T02:18:26.247Z,13.57
2023-02-16T02:21:28.448Z,12.57
2023-02-16T02:24:25.150Z,13.17
2023-02-16T02:27:04.584Z,13.20
2023-02-16T02:29:37.562Z,12.73
2023-02-16T02:32:14.522Z,14.03
2023-02-16T02:35:21.199Z,13.03
2023-02-16T02:37:57.137Z,13.13
2023-02-16T02:41:03.819Z,13.20
2023-02-16T02:43:51.271Z,13.73
2023-02-16T02:46:26.961Z,13.10
2023-02-16T02:48:54.282Z,12.80
2023-02-16T02:51:30.489Z,13.33
2023-02-16T02:54:32.865Z,12.23
2023-02-16T02:57:34.182Z,13.10
2023-02-16T03:00:42.134Z,13.07
2023-02-16T03:03:30.973Z,12.83
2023-02-16T03:06:18.097Z,13.47
2023-02-16T03:08:48.324Z,12.73
2023-02-16T03:11:46.290Z,13.67
2023-02-16T03:14:22.471Z,13.17
2023-02-16T03:17:16.987Z,12.73
2023-02-16T03:20:06.098Z,12.77
2023-02-16T03:22:53.121Z,12.83
2023-02-16T03:25:42.100Z,12.43
2023-02-16T03:28:28.766Z,12.70
2023-02-16T03:30:57.014Z,12.10
2023-02-16T03:33:25.369Z,13.23
2023-02-16T03:35:53.658Z,13.10
2023-02-16T03:38:21.648Z,14.10
2023-02-16T03:40:51.253Z,12.87
2023-02-16T03:43:18.821Z,12.87
2023-02-16T03:45:46.273Z,12.60
2023-02-16T03:48:13.830Z,13.43
2023-02-16T03:50:41.320Z,12.70
2023-02-16T03:53:09.329Z,12.97
2023-02-16T03:55:39.637Z,14.13
2023-02-16T03:58:08.952Z,12.73
2023-02-16T04:00:37.264Z,12.40
2023-02-16T04:03:05.489Z,13.10
2023-02-16T04:05:33.307Z,13.37
2023-02-16T04:08:00.678Z,13.13
2023-02-16T04:10:28.039Z,12.97
2023-02-16T04:12:55.326Z,12.27
2023-02-16T04:15:26.222Z,13.23
2023-02-16T04:17:54.249Z,12.73
2023-02-16T04:20:28.570Z,11.80
2023-02-16T04:22:56.186Z,12.20
2023-02-16T04:25:24.025Z,13.13
2023-02-16T04:27:52.194Z,12.27
2023-02-16T04:30:23.261Z,12.53
2023-02-16T04:32:50.732Z,12.10
2023-02-16T04:35:19.307Z,12.23
2023-02-16T04:37:47.230Z,12.83
2023-02-16T04:40:16.053Z,12.63
2023-02-16T04:42:44.404Z,12.13
2023-02-16T04:45:12.370Z,11.93
2023-02-16T04:47:39.573Z,12.00
2023-02-16T04:50:07.967Z,11.57
2023-02-16T04:52:36.877Z,12.60
2023-02-16T04:55:05.791Z,11.77
2023-02-16T04:57:33.071Z,11.20
2023-02-16T05:00:00.634Z,11.47
2023-02-16T05:02:32.064Z,11.17
2023-02-16T05:05:02.214Z,11.90
2023-02-16T05:07:29.499Z,10.57
2023-02-16T05:09:57.037Z,10.70
2023-02-16T05:12:43.151Z,10.87
2023-02-16T05:15:10.306Z,10.13
2023-02-16T05:17:37.529Z,9.80
2023-02-16T05:20:05.377Z,9.30
2023-02-16T05:22:35.404Z,9.10
2023-02-16T05:25:03.096Z,8.33
2023-02-16T05:27:31.596Z,8.17
2023-02-16T05:29:59.584Z,7.77
2023-02-16T05:32:26.930Z,7.23
2023-02-16T05:34:54.132Z,6.90
2023-02-16T05:37:21.329Z,6.43
2023-02-16T05:39:48.799Z,6.77
2023-02-16T05:42:16.208Z,5.50
2023-02-16T05:44:43.382Z,5.80
2023-02-16T05:47:11.439Z,4.93
2023-02-16T05:49:38.597Z,5.57
2023-02-16T05:52:06.107Z,4.90
2023-02-16T05:54:33.571Z,5.60
2023-02-16T05:57:00.763Z,6.00
2023-02-16T05:59:28.029Z,6.23
2023-02-16T06:01:55.250Z,7.70
2023-02-16T06:04:24.785Z,6.83
2023-02-16T06:06:52.204Z,7.27
2023-02-16T06:09:19.485Z,8.00
2023-02-16T06:11:47.021Z,9.37
2023-02-16T06:14:18.090Z,8.50
2023-02-16T06:16:48.325Z,8.83
2023-02-16T06:19:17.266Z,9.23
2023-02-16T06:21:44.984Z,9.80
2023-02-16T06:24:13.256Z,9.40
2023-02-16T06:26:41.034Z,9.73
2023-02-16T06:29:08.776Z,9.27
2023-02-16T06:31:36.982Z,8.77
2023-02-16T06:34:05.530Z,9.37
2023-02-16T06:36:33.506Z,9.40
2023-02-16T06:39:01.124Z,8.50
2023-02-16T06:41:43.377Z,9.13
2023-02-16T06:44:13.688Z,8.70
2023-02-16T06:46:42.956Z,8.60
2023-02-16T06:49:18.573Z,8.80
2023-02-16T06:51:47.623Z,8.63
2023-02-16T06:54:15.629Z,8.37
2023-02-16T06:56:43.198Z,7.90
2023-02-16T06:59:12.606Z,8.03
2023-02-16T07:01:39.878Z,7.90
2023-02-16T07:04:07.400Z,8.03
2023-02-16T07:06:35.198Z,8.60
2023-02-16T07:09:02.863Z,8.03
2023-02-16T07:11:30.034Z,8.87
2023-02-16T07:13:57.266Z,8.87
2023-02-16T07:16:24.885Z,9.23
2023-02-16T07:18:52.222Z,9.60
2023-02-16T07:21:19.430Z,8.93
2023-02-16T07:23:46.672Z,8.33
2023-02-16T07:26:14.139Z,8.73
2023-02-16T07:28:41.841Z,8.70
2023-02-16T07:31:16.195Z,8.93
2023-02-16T07:33:44.019Z,8.93
2023-02-16T07:36:14.995Z,8.10
2023-02-16T07:38:42.490Z,8.77
2023-02-16T07:41:11.086Z,8.77
2023-02-16T07:43:39.501Z,8.33
2023-02-16T07:46:06.962Z,8.33
2023-02-16T07:48:34.166Z,8.80
2023-02-16T07:51:02.203Z,8.50
2023-02-16T07:53:29.751Z,7.43
2023-02-16T07:55:57.354Z,7.70
2023-02-16T07:58:27.808Z,7.80
2023-02-16T08:00:56.880Z,7.30
2023-02-16T08:03:24.701Z,6.80
2023-02-16T08:05:51.996Z,6.90
2023-02-16T08:08:19.226Z,7.37
2023-02-16T08:10:46.421Z,7.33
2023-02-16T08:13:13.662Z,6.57
2023-02-16T08:15:44.498Z,7.20
2023-02-16T08:18:12.348Z,7.10
2023-02-16T08:20:57.659Z,6.97
2023-02-16T08:23:26.904Z,7.37
2023-02-16T08:25:54.201Z,6.63
2023-02-16T08:28:22.222Z,7.50
2023-02-16T08:30:49.899Z,7.00
2023-02-16T08:33:17.593Z,6.73
2023-02-16T08:35:45.376Z,6.93
2023-02-16T08:38:12.977Z,7.37
2023-02-16T08:40:40.062Z,7.30
2023-02-16T08:43:07.219Z,7.80
2023-02-16T08:45:34.446Z,7.77
2023-02-16T08:48:02.541Z,8.17
2023-02-16T08:50:29.690Z,7.37
2023-02-16T08:52:58.417Z,7.33
2023-02-16T08:55:25.617Z,7.80
2023-02-16T08:57:53.102Z,7.53
2023-02-16T09:00:35.774Z,7.47
2023-02-16T09:03:04.436Z,7.67
2023-02-16T09:05:31.716Z,8.40
2023-02-16T09:07:59.311Z,8.40
2023-02-16T09:10:26.811Z,8.13
2023-02-16T09:12:54.844Z,8.20
2023-02-16T09:15:22.573Z,8.20
2023-02-16T09:17:49.811Z,8.03
2023-02-16T09:20:17.529Z,7.57
2023-02-16T09:25:13.789Z,7.87
2023-02-16T09:27:41.261Z,7.20
2023-02-16T09:30:10.093Z,7.00
2023-02-16T09:32:37.574Z,6.73
2023-02-16T09:35:05.536Z,7.10
2023-02-16T09:37:33.282Z,7.10
2023-02-16T09:40:00.740Z,7.17
2023-02-16T09:42:48.659Z,7.60
2023-02-16T09:45:21.702Z,7.93
2023-02-16T09:47:51.804Z,7.90
2023-02-16T09:50:50.311Z,7.73
2023-02-16T09:53:36.472Z,8.00
2023-02-16T09:56:18.241Z,8.07
2023-02-16T09:58:57.838Z,7.73
2023-02-16T10:01:25.026Z,8.23
2023-02-16T10:04:28.777Z,8.27
2023-02-16T10:07:39.551Z,7.07
2023-02-16T10:10:08.799Z,8.20
2023-02-16T10:12:44.563Z,9.30
2023-02-16T10:15:28.004Z,8.73
2023-02-16T10:18:04.080Z,8.33
2023-02-16T10:20:44.320Z,8.83
2023-02-16T10:23:40.470Z,9.87
2023-02-16T10:26:14.195Z,9.77
2023-02-16T10:28:55.777Z,9.77
2023-02-16T10:31:42.449Z,11.13
2023-02-16T10:35:01.354Z,11.13
2023-02-16T10:37:43.094Z,11.20
2023-02-16T10:40:13.268Z,11.27
2023-02-16T10:42:57.248Z,11.37
2023-02-16T10:45:49.554Z,12.50
2023-02-16T10:48:23.839Z,12.27
2023-02-16T10:51:09.433Z,12.93
2023-02-16T10:54:04.406Z,14.20
2023-02-16T10:56:40.904Z,13.37
2023-02-16T10:59:45.942Z,14.60
2023-02-16T11:02:42.201Z,13.97
2023-02-16T11:05:32.458Z,14.03
2023-02-16T11:08:01.963Z,13.63
2023-02-16T11:10:43.309Z,13.53
2023-02-16T11:13:24.295Z,13.83
2023-02-16T11:15:57.273Z,13.87
2023-02-16T11:18:39.262Z,14.17
2023-02-16T11:21:09.083Z,14.90
2023-02-16T11:23:44.011Z,15.77
2023-02-16T11:26:11.911Z,15.23
2023-02-16T11:28:48.002Z,15.07
2023-02-16T11:31:38.391Z,15.07
2023-02-16T11:34:13.846Z,14.83
2023-02-16T11:36:44.338Z,15.27
2023-02-16T11:39:14.842Z,16.87
2023-02-16T11:41:57.769Z,17.03
2023-02-16T11:44:35.831Z,16.80
2023-02-16T11:47:08.380Z,16.63
2023-02-16T11:49:39.320Z,16.53
2023-02-16T11:52:24.982Z,16.50
2023-02-16T11:54:55.244Z,16.17
2023-02-16T11:57:29.892Z,16.73
2023-02-16T11:59:58.667Z,16.83
2023-02-16T12:03:06.548Z,17.50
2023-02-16T12:05:53.469Z,17.20
2023-02-16T12:08:30.356Z,16.97
2023-02-16T12:11:25.562Z,16.73
2023-02-16T12:14:59.086Z,17.10
2023-02-16T12:18:07.325Z,17.60
2023-02-16T12:20:36.971Z,17.73
2023-02-16T12:23:04.207Z,19.17
2023-02-16T12:25:39.486Z,19.47
2023-02-16T12:28:23.012Z,17.93
2023-02-16T12:31:05.705Z,18.03
2023-02-16T12:33:37.802Z,17.63
2023-02-16T12:36:33.995Z,18.37
2023-02-16T12:39:30.016Z,17.83
2023-02-16T12:42:37.564Z,18.50
2023-02-16T12:45:19.395Z,18.73
2023-02-16T12:47:57.663Z,19.07
2023-02-16T12:50:28.197Z,18.53
2023-02-16T12:53:09.515Z,18.80
2023-02-16T12:55:43.173Z,17.83
2023-02-16T12:58:19.929Z,17.47
2023-02-16T13:01:00.343Z,18.67
2023-02-16T13:03:52.582Z,18.53
2023-02-16T13:06:53.768Z,19.40
2023-02-16T13:09:55.651Z,20.77
2023-02-16T13:12:37.685Z,19.07
2023-02-16T13:15:16.146Z,18.77
2023-02-16T13:17:58.075Z,19.00
2023-02-16T13:20:26.025Z,20.13
2023-02-16T13:23:15.292Z,20.90
2023-02-16T13:25:54.978Z,19.33
2023-02-16T13:28:31.854Z,19.70
2023-02-16T13:31:32.897Z,19.63
2023-02-16T13:34:38.577Z,19.23
2023-02-16T13:37:20.304Z,20.60
2023-02-16T13:40:18.978Z,20.47
2023-02-16T13:43:13.452Z,19.63
2023-02-16T13:45:47.477Z,21.43
2023-02-16T13:48:22.398Z,20.30
2023-02-16T13:50:58.704Z,19.43
2023-02-16T13:53:33.281Z,20.13
2023-02-16T13:56:22.495Z,21.27
2023-02-16T13:58:52.484Z,19.60
2023-02-16T14:01:32.166Z,20.90
2023-02-16T14:04:01.676Z,20.23
2023-02-16T14:06:38.019Z,21.30
2023-02-16T14:09:13.784Z,20.60
2023-02-16T14:11:53.282Z,21.67
2023-02-16T14:14:36.928Z,20.47
2023-02-16T14:17:22.198Z,20.63
2023-02-16T14:19:58.889Z,21.57
2023-02-16T14:22:43.778Z,20.57
2023-02-16T14:25:23.517Z,20.40
2023-02-16T14:27:54.289Z,20.87
2023-02-16T14:30:42.638Z,22.27
2023-02-16T14:33:13.061Z,20.33
2023-02-16T14:35:43.615Z,21.37
2023-02-16T14:38:42.693Z,20.33
2023-02-16T14:41:32.553Z,20.63
2023-02-16T14:44:06.222Z,20.47
2023-02-16T14:46:53.307Z,21.93
2023-02-16T14:49:57.020Z,22.00
2023-02-16T14:52:42.430Z,21.47
2023-02-16T14:55:31.518Z,21.30
2023-02-16T14:58:06.541Z,22.03
2023-02-16T15:00:46.792Z,23.50
2023-02-16T15:03:18.854Z,22.13
2023-02-16T15:06:06.737Z,22.20
2023-02-16T15:08:40.533Z,23.90
2023-02-16T15:11:16.079Z,22.13
2023-02-16T15:13:44.973Z,23.90
2023-02-16T15:16:15.709Z,23.20
2023-02-16T15:18:49.023Z,23.27
2023-02-16T15:21:26.965Z,22.20
2023-02-16T15:23:57.355Z,22.80
2023-02-16T15:26:33.494Z,22.37
2023-02-16T15:29:13.619Z,23.10
2023-02-16T15:31:40.980Z,24.30
2023-02-16T15:34:16.270Z,23.13
2023-02-16T15:36:47.220Z,22.47
2023-02-16T15:39:42.685Z,23.47
2023-02-16T15:42:23.985Z,22.40
2023-02-16T15:44:51.987Z,22.70
2023-02-16T15:47:24.860Z,22.57
2023-02-16T15:49:53.649Z,23.10
2023-02-16T15:52:33.971Z,22.17
2023-02-16T15:55:05.121Z,22.33
2023-02-16T15:57:37.619Z,22.57
2023-02-16T16:00:25.418Z,21.57
2023-02-16T16:03:00.694Z,22.40
2023-02-16T16:05:39.113Z,21.30
2023-02-16T16:08:11.407Z,22.03
2023-02-16T16:10:42.193Z,21.47
2023-02-16T16:13:20.050Z,21.17
2023-02-16T16:15:50.417Z,21.33
2023-02-16T16:18:39.880Z,20.27
2023-02-16T16:21:27.022Z,20.63
2023-02-16T16:24:02.590Z,21.73
2023-02-16T16:26:35.314Z,20.27
2023-02-16T16:29:05.129Z,20.63
2023-02-16T16:31:40.883Z,19.90
2023-02-16T16:34:11.848Z,21.63
2023-02-16T16:36:45.795Z,21.67
2023-02-16T16:39:18.816Z,20.50
2023-02-16T16:42:08.517Z,21.17
2023-02-16T16:44:41.975Z,20.00
2023-02-16T16:47:33.912Z,20.40
2023-02-16T16:50:07.535Z,20.97
2023-02-16T16:52:37.536Z,20.07
2023-02-16T16:55:34.309Z,19.43
2023-02-16T16:58:05.448Z,20.07
2023-02-16T17:00:35.651Z,19.10
2023-02-16T17:03:05.484Z,20.07
2023-02-16T17:05:34.100Z,19.73
2023-02-16T17:08:02.477Z,20.10
2023-02-16T17:10:30.163Z,19.47
2023-02-16T17:12:59.950Z,20.17
2023-02-16T17:15:33.270Z,20.57
2023-02-16T17:18:01.687Z,19.73
2023-02-16T17:20:29.509Z,20.10
2023-02-16T17:22:57.144Z,20.13
2023-02-16T17:25:24.715Z,19.80
2023-02-16T17:27:52.237Z,20.23
2023-02-16T17:30:19.549Z,19.20
2023-02-16T17:32:46.737Z,19.77
2023-02-16T17:35:15.914Z,20.23
2023-02-16T17:37:44.805Z,20.23
2023-02-16T17:40:17.717Z,18.77
2023-02-16T17:42:45.500Z,20.23
2023-02-16T17:45:14.586Z,17.57
2023-02-16T17:47:45.356Z,19.93
2023-02-16T17:50:15.230Z,20.17
2023-02-16T17:52:44.517Z,18.80
2023-02-16T17:55:13.551Z,20.20
2023-02-16T17:57:40.949Z,20.07
2023-02-16T18:00:14.872Z,19.93
2023-02-16T18:02:42.392Z,21.23
2023-02-16T18:05:11.178Z,20.57
2023-02-16T18:07:38.951Z,20.73
2023-02-16T18:10:07.029Z,20.27
2023-02-16T18:12:35.517Z,20.70
2023-02-16T18:15:04.235Z,20.00
2023-02-16T18:17:31.450Z,20.20
2023-02-16T18:19:58.957Z,18.30
2023-02-16T18:22:26.442Z,19.70
2023-02-16T18:24:53.790Z,21.40
2023-02-16T18:27:21.770Z,20.43
2023-02-16T18:29:49.067Z,20.23
2023-02-16T18:32:16.801Z,21.60
2023-02-16T18:34:44.089Z,21.57
2023-02-16T18:37:11.948Z,20.17
2023-02-16T18:39:41.014Z,21.03
2023-02-16T18:42:09.112Z,20.43
2023-02-16T18:44:36.733Z,22.00
2023-02-16T18:47:04.274Z,20.20
2023-02-16T18:49:31.840Z,20.63
2023-02-16T18:51:59.075Z,21.97
2023-02-16T18:54:26.587Z,21.20
2023-02-16T18:56:53.883Z,21.80
2023-02-16T18:59:21.693Z,23.40
2023-02-16T19:01:58.036Z,22.40
2023-02-16T19:04:26.824Z,21.60
2023-02-16T19:06:55.993Z,22.40
2023-02-16T19:09:23.355Z,21.93
2023-02-16T19:11:51.344Z,22.23
2023-02-16T19:14:19.007Z,20.63
2023-02-16T19:16:50.501Z,21.67
2023-02-16T19:19:22.602Z,21.57
2023-02-16T19:21:51.236Z,21.97
2023-02-16T19:24:20.053Z,22.63
2023-02-16T19:26:48.034Z,21.83
2023-02-16T19:29:15.348Z,23.47
2023-02-16T19:31:42.652Z,24.20
2023-02-16T19:34:10.747Z,22.93
2023-02-16T19:36:40.093Z,23.70
2023-02-16T19:39:07.501Z,21.97
2023-02-16T19:41:40.154Z,22.13
2023-02-16T19:44:08.173Z,20.47
2023-02-16T19:46:35.717Z,21.43
2023-02-16T19:49:03.417Z,21.23
2023-02-16T19:51:31.003Z,21.80
2023-02-16T19:53:59.883Z,22.63
2023-02-16T19:56:27.817Z,22.73
2023-02-16T19:58:58.625Z,24.43
2023-02-16T20:01:28.038Z,23.17
2023-02-16T20:03:56.519Z,23.23
2023-02-16T20:06:25.147Z,23.93
2023-02-16T20:08:54.383Z,24.30
2023-02-16T20:11:24.622Z,24.43
2023-02-16T20:13:52.591Z,24.37
2023-02-16T20:16:21.263Z,23.33
2023-02-16T20:18:50.883Z,23.17
2023-02-16T20:21:21.351Z,23.27
2023-02-16T20:23:51.197Z,22.83
2023-02-16T20:26:21.601Z,21.17
2023-02-16T20:28:50.342Z,21.43
2023-02-16T20:31:32.145Z,22.77
2023-02-16T20:34:00.530Z,22.07
2023-02-16T20:36:28.713Z,22.83
2023-02-16T20:39:02.476Z,23.93
2023-02-16T20:41:31.240Z,23.80
2023-02-16T20:43:58.518Z,24.17
2023-02-16T20:46:26.535Z,22.83
2023-02-16T20:48:54.500Z,23.80
2023-02-16T20:51:23.325Z,24.70
2023-02-16T20:53:50.938Z,26.13
2023-02-16T20:56:21.621Z,24.13
2023-02-16T20:58:50.839Z,22.93
2023-02-16T21:01:27.645Z,21.80
2023-02-16T21:03:56.487Z,21.63
2023-02-16T21:06:24.409Z,21.90
2023-02-16T21:08:52.163Z,20.80
2023-02-16T21:11:20.052Z,21.60
2023-02-16T21:13:47.716Z,21.90
2023-02-16T21:16:15.737Z,22.87
2023-02-16T21:18:43.898Z,22.00
2023-02-16T21:21:15.862Z,21.20
2023-02-16T21:23:52.379Z,19.63
2023-02-16T21:26:22.366Z,21.00
2023-02-16T21:28:49.929Z,21.07
2023-02-16T21:31:24.064Z,21.00
2023-02-16T21:33:52.405Z,21.63
2023-02-16T21:36:23.495Z,21.17
2023-02-16T21:38:51.132Z,21.00
2023-02-16T21:41:29.435Z,20.53
2023-02-16T21:44:07.178Z,20.87
2023-02-16T21:46:46.227Z,21.67
2023-02-16T21:49:16.770Z,19.90
2023-02-16T21:51:45.809Z,20.10
2023-02-16T21:54:16.382Z,19.10
2023-02-16T21:56:53.139Z,20.03
2023-02-16T21:59:22.835Z,19.30
2023-02-16T22:01:52.118Z,20.23
2023-02-16T22:04:23.906Z,18.60
2023-02-16T22:06:54.878Z,19.50
2023-02-16T22:09:26.574Z,18.43
2023-02-16T22:11:54.139Z,19.17
2023-02-16T22:14:25.698Z,18.57
2023-02-16T22:16:53.229Z,20.50
2023-02-16T22:19:20.510Z,18.13
2023-02-16T22:21:48.646Z,18.80
2023-02-16T22:24:17.299Z,17.93
2023-02-16T22:26:46.841Z,19.47
2023-02-16T22:29:14.958Z,19.77
2023-02-16T22:31:47.197Z,19.77
2023-02-16T22:34:17.673Z,20.00
2023-02-16T22:36:46.104Z,19.17
2023-02-16T22:39:15.134Z,19.90
2023-02-16T22:41:42.819Z,18.40
2023-02-16T22:44:12.442Z,19.63
2023-02-16T22:46:39.946Z,19.10
2023-02-16T22:49:07.483Z,20.07
2023-02-16T22:51:34.699Z,18.83
2023-02-16T22:54:02.499Z,19.17
2023-02-16T22:56:31.359Z,18.70
2023-02-16T22:59:00.175Z,18.67
2023-02-16T23:01:29.903Z,17.73
2023-02-16T23:04:00.356Z,18.93
2023-02-16T23:06:36.754Z,18.90
2023-02-16T23:09:11.845Z,19.03
2023-02-16T23:11:39.384Z,19.93
2023-02-16T23:14:16.505Z,19.60
2023-02-16T23:16:55.013Z,19.47
2023-02-16T23:19:25.608Z,20.33
2023-02-16T23:21:54.836Z,21.60
2023-02-16T23:24:23.550Z,20.30
2023-02-16T23:26:51.270Z,20.77
2023-02-16T23:29:18.907Z,19.93
2023-02-16T23:31:47.481Z,19.60
2023-02-16T23:34:15.792Z,17.93
2023-02-16T23:36:43.513Z,17.50
2023-02-16T23:39:17.431Z,19.13
2023-02-16T23:41:45.185Z,18.50
2023-02-16T23:44:14.187Z,17.03
2023-02-16T23:46:41.948Z,19.17
2023-02-16T23:49:09.552Z,18.13
2023-02-16T23:51:36.733Z,18.73
2023-02-16T23:54:04.251Z,17.50
2023-02-16T23:56:31.542Z,17.63
2023-02-16T23:59:00.105Z,17.97
